sensor_id;sensor_type;location;lat;lon;timestamp;P1;durP1;ratioP1;P2;durP2;ratioP2
46551;SDS011;32278;51.810;4.712;2023-06-22T00:01:28;11.32;;;7.43;;
46551;SDS011;32278;51.810;4.712;2023-06-22T00:03:54;15.27;;;8.45;;
46551;SDS011;32278;51.810;4.712;2023-06-22T00:06:20;13.38;;;7.53;;
46551;SDS011;32278;51.810;4.712;2023-06-22T00:08:46;12.48;;;6.57;;
46551;SDS011;32278;51.810;4.712;2023-06-22T00:11:12;10.77;;;8.07;;
46551;SDS011;32278;51.810;4.712;2023-06-22T00:13:38;12.88;;;7.30;;
46551;SDS011;32278;51.810;4.712;2023-06-22T00:16:04;13.38;;;7.20;;
46551;SDS011;32278;51.810;4.712;2023-06-22T00:18:30;13.18;;;7.80;;
46551;SDS011;32278;51.810;4.712;2023-06-22T00:20:57;13.63;;;8.38;;
46551;SDS011;32278;51.810;4.712;2023-06-22T00:23:23;12.63;;;7.95;;
46551;SDS011;32278;51.810;4.712;2023-06-22T00:25:49;12.02;;;8.32;;
46551;SDS011;32278;51.810;4.712;2023-06-22T00:28:16;13.13;;;8.18;;
46551;SDS011;32278;51.810;4.712;2023-06-22T00:30:41;19.80;;;8.65;;
46551;SDS011;32278;51.810;4.712;2023-06-22T00:33:07;19.33;;;10.90;;
46551;SDS011;32278;51.810;4.712;2023-06-22T00:35:34;14.85;;;9.07;;
46551;SDS011;32278;51.810;4.712;2023-06-22T00:38:00;15.82;;;9.82;;
46551;SDS011;32278;51.810;4.712;2023-06-22T00:40:27;23.63;;;9.18;;
46551;SDS011;32278;51.810;4.712;2023-06-22T00:42:53;14.68;;;9.18;;
46551;SDS011;32278;51.810;4.712;2023-06-22T00:45:20;14.43;;;8.80;;
46551;SDS011;32278;51.810;4.712;2023-06-22T00:47:48;15.52;;;9.55;;
46551;SDS011;32278;51.810;4.712;2023-06-22T00:50:15;18.25;;;10.57;;
46551;SDS011;32278;51.810;4.712;2023-06-22T00:52:43;14.20;;;10.32;;
46551;SDS011;32278;51.810;4.712;2023-06-22T00:55:11;16.60;;;9.90;;
46551;SDS011;32278;51.810;4.712;2023-06-22T00:57:37;15.70;;;10.57;;
46551;SDS011;32278;51.810;4.712;2023-06-22T01:00:03;17.88;;;11.13;;
46551;SDS011;32278;51.810;4.712;2023-06-22T01:02:34;18.98;;;10.48;;
46551;SDS011;32278;51.810;4.712;2023-06-22T01:05:01;15.25;;;9.63;;
46551;SDS011;32278;51.810;4.712;2023-06-22T01:10:07;16.02;;;9.80;;
46551;SDS011;32278;51.810;4.712;2023-06-22T01:12:34;17.60;;;10.48;;
46551;SDS011;32278;51.810;4.712;2023-06-22T01:15:04;17.00;;;10.88;;
46551;SDS011;32278;51.810;4.712;2023-06-22T01:17:34;19.90;;;11.32;;
46551;SDS011;32278;51.810;4.712;2023-06-22T01:20:01;18.65;;;11.00;;
46551;SDS011;32278;51.810;4.712;2023-06-22T01:22:30;15.57;;;10.15;;
46551;SDS011;32278;51.810;4.712;2023-06-22T01:25:13;16.35;;;11.63;;
46551;SDS011;32278;51.810;4.712;2023-06-22T01:30:17;19.33;;;11.80;;
46551;SDS011;32278;51.810;4.712;2023-06-22T01:32:44;21.50;;;12.23;;
46551;SDS011;32278;51.810;4.712;2023-06-22T01:35:10;18.13;;;13.00;;
46551;SDS011;32278;51.810;4.712;2023-06-22T01:37:37;19.55;;;13.35;;
46551;SDS011;32278;51.810;4.712;2023-06-22T01:40:04;23.02;;;13.32;;
46551;SDS011;32278;51.810;4.712;2023-06-22T01:42:31;21.65;;;13.73;;
46551;SDS011;32278;51.810;4.712;2023-06-22T01:44:57;23.05;;;13.57;;
46551;SDS011;32278;51.810;4.712;2023-06-22T01:47:24;21.33;;;12.77;;
46551;SDS011;32278;51.810;4.712;2023-06-22T01:49:50;19.58;;;13.93;;
46551;SDS011;32278;51.810;4.712;2023-06-22T01:52:17;20.45;;;14.43;;
46551;SDS011;32278;51.810;4.712;2023-06-22T01:54:43;22.10;;;13.85;;
46551;SDS011;32278;51.810;4.712;2023-06-22T01:57:09;20.98;;;13.65;;
46551;SDS011;32278;51.810;4.712;2023-06-22T01:59:37;21.35;;;14.15;;
46551;SDS011;32278;51.810;4.712;2023-06-22T02:02:09;20.80;;;14.18;;
46551;SDS011;32278;51.810;4.712;2023-06-22T02:04:42;19.35;;;14.13;;
46551;SDS011;32278;51.810;4.712;2023-06-22T02:07:12;22.33;;;13.75;;
46551;SDS011;32278;51.810;4.712;2023-06-22T02:09:38;22.45;;;14.27;;
46551;SDS011;32278;51.810;4.712;2023-06-22T02:12:04;20.15;;;13.85;;
46551;SDS011;32278;51.810;4.712;2023-06-22T02:14:31;20.92;;;13.93;;
46551;SDS011;32278;51.810;4.712;2023-06-22T02:16:57;24.55;;;14.57;;
46551;SDS011;32278;51.810;4.712;2023-06-22T02:19:24;23.75;;;15.10;;
46551;SDS011;32278;51.810;4.712;2023-06-22T02:21:50;19.90;;;14.18;;
46551;SDS011;32278;51.810;4.712;2023-06-22T02:24:16;24.80;;;15.25;;
46551;SDS011;32278;51.810;4.712;2023-06-22T02:26:43;23.83;;;15.07;;
46551;SDS011;32278;51.810;4.712;2023-06-22T02:29:10;20.77;;;14.63;;
46551;SDS011;32278;51.810;4.712;2023-06-22T02:31:36;21.25;;;14.50;;
46551;SDS011;32278;51.810;4.712;2023-06-22T02:34:02;24.85;;;16.02;;
46551;SDS011;32278;51.810;4.712;2023-06-22T02:36:28;25.00;;;16.92;;
46551;SDS011;32278;51.810;4.712;2023-06-22T02:38:55;23.05;;;16.15;;
46551;SDS011;32278;51.810;4.712;2023-06-22T02:41:23;27.80;;;16.67;;
46551;SDS011;32278;51.810;4.712;2023-06-22T02:43:49;21.38;;;15.40;;
46551;SDS011;32278;51.810;4.712;2023-06-22T02:46:15;25.30;;;15.55;;
46551;SDS011;32278;51.810;4.712;2023-06-22T02:48:41;20.73;;;14.95;;
46551;SDS011;32278;51.810;4.712;2023-06-22T02:51:07;27.05;;;16.50;;
46551;SDS011;32278;51.810;4.712;2023-06-22T02:53:34;24.33;;;15.77;;
46551;SDS011;32278;51.810;4.712;2023-06-22T02:56:01;27.35;;;18.23;;
46551;SDS011;32278;51.810;4.712;2023-06-22T02:58:28;26.13;;;17.10;;
46551;SDS011;32278;51.810;4.712;2023-06-22T03:00:54;27.52;;;17.33;;
46551;SDS011;32278;51.810;4.712;2023-06-22T03:03:20;22.85;;;16.00;;
46551;SDS011;32278;51.810;4.712;2023-06-22T03:05:46;28.05;;;17.85;;
46551;SDS011;32278;51.810;4.712;2023-06-22T03:08:12;25.20;;;17.13;;
46551;SDS011;32278;51.810;4.712;2023-06-22T03:10:37;27.55;;;17.90;;
46551;SDS011;32278;51.810;4.712;2023-06-22T03:13:04;33.42;;;18.17;;
46551;SDS011;32278;51.810;4.712;2023-06-22T03:15:30;30.02;;;18.23;;
46551;SDS011;32278;51.810;4.712;2023-06-22T03:17:57;27.90;;;17.42;;
46551;SDS011;32278;51.810;4.712;2023-06-22T03:20:23;29.40;;;18.33;;
46551;SDS011;32278;51.810;4.712;2023-06-22T03:22:51;26.90;;;17.95;;
46551;SDS011;32278;51.810;4.712;2023-06-22T03:25:17;25.75;;;16.80;;
46551;SDS011;32278;51.810;4.712;2023-06-22T03:27:44;28.73;;;17.20;;
46551;SDS011;32278;51.810;4.712;2023-06-22T03:30:10;27.73;;;16.38;;
46551;SDS011;32278;51.810;4.712;2023-06-22T03:32:36;26.30;;;17.42;;
46551;SDS011;32278;51.810;4.712;2023-06-22T03:35:02;24.58;;;17.05;;
46551;SDS011;32278;51.810;4.712;2023-06-22T03:37:29;27.98;;;17.77;;
46551;SDS011;32278;51.810;4.712;2023-06-22T03:39:55;27.30;;;17.08;;
46551;SDS011;32278;51.810;4.712;2023-06-22T03:42:20;28.92;;;17.77;;
46551;SDS011;32278;51.810;4.712;2023-06-22T03:44:47;23.45;;;16.52;;
46551;SDS011;32278;51.810;4.712;2023-06-22T03:47:13;22.58;;;14.93;;
46551;SDS011;32278;51.810;4.712;2023-06-22T03:49:39;25.55;;;15.77;;
46551;SDS011;32278;51.810;4.712;2023-06-22T03:52:05;24.60;;;14.75;;
46551;SDS011;32278;51.810;4.712;2023-06-22T03:54:31;24.65;;;15.85;;
46551;SDS011;32278;51.810;4.712;2023-06-22T03:56:57;26.20;;;16.20;;
46551;SDS011;32278;51.810;4.712;2023-06-22T03:59:24;24.35;;;15.85;;
46551;SDS011;32278;51.810;4.712;2023-06-22T04:01:50;24.23;;;15.32;;
46551;SDS011;32278;51.810;4.712;2023-06-22T04:04:17;22.90;;;15.27;;
46551;SDS011;32278;51.810;4.712;2023-06-22T04:06:42;22.60;;;15.35;;
46551;SDS011;32278;51.810;4.712;2023-06-22T04:09:08;26.52;;;15.52;;
46551;SDS011;32278;51.810;4.712;2023-06-22T04:11:34;22.13;;;15.00;;
46551;SDS011;32278;51.810;4.712;2023-06-22T04:14:00;26.30;;;15.65;;
46551;SDS011;32278;51.810;4.712;2023-06-22T04:16:26;27.05;;;16.02;;
46551;SDS011;32278;51.810;4.712;2023-06-22T04:18:52;22.77;;;15.18;;
46551;SDS011;32278;51.810;4.712;2023-06-22T04:21:18;22.65;;;15.48;;
46551;SDS011;32278;51.810;4.712;2023-06-22T04:23:44;21.10;;;14.95;;
46551;SDS011;32278;51.810;4.712;2023-06-22T04:26:11;28.10;;;15.57;;
46551;SDS011;32278;51.810;4.712;2023-06-22T04:28:37;21.75;;;14.35;;
46551;SDS011;32278;51.810;4.712;2023-06-22T04:31:03;22.13;;;14.65;;
46551;SDS011;32278;51.810;4.712;2023-06-22T04:33:29;21.70;;;13.23;;
46551;SDS011;32278;51.810;4.712;2023-06-22T04:35:55;20.73;;;14.13;;
46551;SDS011;32278;51.810;4.712;2023-06-22T04:38:28;18.92;;;12.45;;
46551;SDS011;32278;51.810;4.712;2023-06-22T04:40:58;22.20;;;14.18;;
46551;SDS011;32278;51.810;4.712;2023-06-22T04:43:26;22.63;;;13.70;;
46551;SDS011;32278;51.810;4.712;2023-06-22T04:45:55;19.08;;;13.38;;
46551;SDS011;32278;51.810;4.712;2023-06-22T04:48:21;23.52;;;14.25;;
46551;SDS011;32278;51.810;4.712;2023-06-22T04:50:47;24.10;;;14.75;;
46551;SDS011;32278;51.810;4.712;2023-06-22T04:53:13;18.70;;;13.23;;
46551;SDS011;32278;51.810;4.712;2023-06-22T04:55:39;18.20;;;13.35;;
46551;SDS011;32278;51.810;4.712;2023-06-22T04:58:10;24.92;;;14.63;;
46551;SDS011;32278;51.810;4.712;2023-06-22T05:00:37;21.63;;;14.30;;
46551;SDS011;32278;51.810;4.712;2023-06-22T05:03:03;19.92;;;14.25;;
46551;SDS011;32278;51.810;4.712;2023-06-22T05:05:31;21.67;;;13.35;;
46551;SDS011;32278;51.810;4.712;2023-06-22T05:07:57;20.58;;;13.60;;
46551;SDS011;32278;51.810;4.712;2023-06-22T05:10:26;19.15;;;12.73;;
46551;SDS011;32278;51.810;4.712;2023-06-22T05:12:52;24.55;;;12.88;;
46551;SDS011;32278;51.810;4.712;2023-06-22T05:15:18;19.92;;;13.43;;
46551;SDS011;32278;51.810;4.712;2023-06-22T05:17:44;21.33;;;13.02;;
46551;SDS011;32278;51.810;4.712;2023-06-22T05:20:13;19.75;;;13.30;;
46551;SDS011;32278;51.810;4.712;2023-06-22T05:22:43;19.98;;;13.15;;
46551;SDS011;32278;51.810;4.712;2023-06-22T05:25:09;20.17;;;13.52;;
46551;SDS011;32278;51.810;4.712;2023-06-22T05:27:36;16.80;;;12.45;;
46551;SDS011;32278;51.810;4.712;2023-06-22T05:30:04;20.60;;;13.45;;
46551;SDS011;32278;51.810;4.712;2023-06-22T05:32:31;24.45;;;12.55;;
46551;SDS011;32278;51.810;4.712;2023-06-22T05:34:58;22.15;;;13.50;;
46551;SDS011;32278;51.810;4.712;2023-06-22T05:37:24;19.70;;;13.07;;
46551;SDS011;32278;51.810;4.712;2023-06-22T05:39:50;18.52;;;12.40;;
46551;SDS011;32278;51.810;4.712;2023-06-22T05:42:17;22.75;;;13.48;;
46551;SDS011;32278;51.810;4.712;2023-06-22T05:44:43;19.05;;;12.38;;
46551;SDS011;32278;51.810;4.712;2023-06-22T05:47:08;19.77;;;12.32;;
46551;SDS011;32278;51.810;4.712;2023-06-22T05:49:34;18.70;;;12.85;;
46551;SDS011;32278;51.810;4.712;2023-06-22T05:52:00;20.65;;;12.50;;
46551;SDS011;32278;51.810;4.712;2023-06-22T05:54:27;20.98;;;12.90;;
46551;SDS011;32278;51.810;4.712;2023-06-22T05:56:53;15.85;;;11.30;;
46551;SDS011;32278;51.810;4.712;2023-06-22T05:59:19;16.95;;;11.73;;
46551;SDS011;32278;51.810;4.712;2023-06-22T06:01:45;15.60;;;11.43;;
46551;SDS011;32278;51.810;4.712;2023-06-22T06:04:16;18.52;;;11.27;;
46551;SDS011;32278;51.810;4.712;2023-06-22T06:06:42;18.65;;;11.68;;
46551;SDS011;32278;51.810;4.712;2023-06-22T06:09:08;15.30;;;11.18;;
46551;SDS011;32278;51.810;4.712;2023-06-22T06:11:34;17.65;;;12.23;;
46551;SDS011;32278;51.810;4.712;2023-06-22T06:14:00;16.10;;;10.32;;
46551;SDS011;32278;51.810;4.712;2023-06-22T06:16:26;17.95;;;10.80;;
46551;SDS011;32278;51.810;4.712;2023-06-22T06:18:52;17.45;;;11.15;;
46551;SDS011;32278;51.810;4.712;2023-06-22T06:21:19;14.75;;;10.43;;
46551;SDS011;32278;51.810;4.712;2023-06-22T06:23:45;21.30;;;10.80;;
46551;SDS011;32278;51.810;4.712;2023-06-22T06:26:12;15.40;;;10.18;;
46551;SDS011;32278;51.810;4.712;2023-06-22T06:28:40;13.35;;;9.95;;
46551;SDS011;32278;51.810;4.712;2023-06-22T06:31:06;16.65;;;8.98;;
46551;SDS011;32278;51.810;4.712;2023-06-22T06:33:33;13.95;;;9.80;;
46551;SDS011;32278;51.810;4.712;2023-06-22T06:35:59;16.30;;;10.50;;
46551;SDS011;32278;51.810;4.712;2023-06-22T06:38:28;12.57;;;8.75;;
46551;SDS011;32278;51.810;4.712;2023-06-22T06:40:54;16.60;;;10.10;;
46551;SDS011;32278;51.810;4.712;2023-06-22T06:43:20;18.58;;;9.57;;
46551;SDS011;32278;51.810;4.712;2023-06-22T06:45:46;12.48;;;8.40;;
46551;SDS011;32278;51.810;4.712;2023-06-22T06:48:12;16.30;;;8.70;;
46551;SDS011;32278;51.810;4.712;2023-06-22T06:50:38;13.55;;;9.32;;
46551;SDS011;32278;51.810;4.712;2023-06-22T06:53:04;11.70;;;8.32;;
46551;SDS011;32278;51.810;4.712;2023-06-22T06:55:31;11.43;;;7.95;;
46551;SDS011;32278;51.810;4.712;2023-06-22T06:58:00;13.85;;;8.48;;
46551;SDS011;32278;51.810;4.712;2023-06-22T07:00:26;11.35;;;8.52;;
46551;SDS011;32278;51.810;4.712;2023-06-22T07:02:52;11.55;;;8.00;;
46551;SDS011;32278;51.810;4.712;2023-06-22T07:05:18;11.00;;;7.78;;
46551;SDS011;32278;51.810;4.712;2023-06-22T07:07:44;13.10;;;8.00;;
46551;SDS011;32278;51.810;4.712;2023-06-22T07:10:10;10.90;;;7.13;;
46551;SDS011;32278;51.810;4.712;2023-06-22T07:12:36;11.00;;;7.68;;
46551;SDS011;32278;51.810;4.712;2023-06-22T07:15:06;11.95;;;7.53;;
46551;SDS011;32278;51.810;4.712;2023-06-22T07:17:35;10.85;;;7.90;;
46551;SDS011;32278;51.810;4.712;2023-06-22T07:20:01;11.45;;;7.88;;
46551;SDS011;32278;51.810;4.712;2023-06-22T07:22:32;8.02;;;6.32;;
46551;SDS011;32278;51.810;4.712;2023-06-22T07:24:58;11.15;;;7.10;;
46551;SDS011;32278;51.810;4.712;2023-06-22T07:27:24;11.82;;;6.55;;
46551;SDS011;32278;51.810;4.712;2023-06-22T07:29:50;10.73;;;6.88;;
46551;SDS011;32278;51.810;4.712;2023-06-22T07:32:16;10.15;;;6.82;;
46551;SDS011;32278;51.810;4.712;2023-06-22T07:34:42;13.68;;;7.22;;
46551;SDS011;32278;51.810;4.712;2023-06-22T07:37:08;8.32;;;6.72;;
46551;SDS011;32278;51.810;4.712;2023-06-22T07:39:35;12.15;;;7.03;;
46551;SDS011;32278;51.810;4.712;2023-06-22T07:42:02;9.25;;;6.50;;
46551;SDS011;32278;51.810;4.712;2023-06-22T07:44:28;10.23;;;6.78;;
46551;SDS011;32278;51.810;4.712;2023-06-22T07:46:54;9.52;;;6.88;;
46551;SDS011;32278;51.810;4.712;2023-06-22T07:49:20;10.80;;;6.38;;
46551;SDS011;32278;51.810;4.712;2023-06-22T07:51:46;11.45;;;6.82;;
46551;SDS011;32278;51.810;4.712;2023-06-22T07:54:12;12.27;;;7.25;;
46551;SDS011;32278;51.810;4.712;2023-06-22T07:56:40;10.45;;;7.55;;
46551;SDS011;32278;51.810;4.712;2023-06-22T07:59:06;10.88;;;8.15;;
46551;SDS011;32278;51.810;4.712;2023-06-22T08:01:32;13.40;;;9.02;;
46551;SDS011;32278;51.810;4.712;2023-06-22T08:03:58;13.48;;;9.10;;
46551;SDS011;32278;51.810;4.712;2023-06-22T08:06:24;10.13;;;8.45;;
46551;SDS011;32278;51.810;4.712;2023-06-22T08:08:50;16.90;;;9.75;;
46551;SDS011;32278;51.810;4.712;2023-06-22T08:11:18;19.80;;;10.02;;
46551;SDS011;32278;51.810;4.712;2023-06-22T08:13:47;15.65;;;10.23;;
46551;SDS011;32278;51.810;4.712;2023-06-22T08:16:13;13.60;;;9.35;;
46551;SDS011;32278;51.810;4.712;2023-06-22T08:18:39;14.38;;;10.18;;
46551;SDS011;32278;51.810;4.712;2023-06-22T08:21:05;13.43;;;9.95;;
46551;SDS011;32278;51.810;4.712;2023-06-22T08:23:31;14.68;;;10.70;;
46551;SDS011;32278;51.810;4.712;2023-06-22T08:25:57;14.90;;;10.68;;
46551;SDS011;32278;51.810;4.712;2023-06-22T08:28:23;19.10;;;10.85;;
46551;SDS011;32278;51.810;4.712;2023-06-22T08:30:49;18.27;;;11.77;;
46551;SDS011;32278;51.810;4.712;2023-06-22T08:33:15;20.13;;;11.93;;
46551;SDS011;32278;51.810;4.712;2023-06-22T08:35:42;16.00;;;11.63;;
46551;SDS011;32278;51.810;4.712;2023-06-22T08:38:08;19.15;;;11.25;;
46551;SDS011;32278;51.810;4.712;2023-06-22T08:40:34;19.35;;;11.93;;
46551;SDS011;32278;51.810;4.712;2023-06-22T08:43:00;15.30;;;11.07;;
46551;SDS011;32278;51.810;4.712;2023-06-22T08:45:26;19.38;;;12.75;;
46551;SDS011;32278;51.810;4.712;2023-06-22T08:47:52;16.63;;;12.05;;
46551;SDS011;32278;51.810;4.712;2023-06-22T08:50:18;20.77;;;12.43;;
46551;SDS011;32278;51.810;4.712;2023-06-22T08:52:44;21.92;;;12.38;;
46551;SDS011;32278;51.810;4.712;2023-06-22T08:55:11;20.38;;;12.60;;
46551;SDS011;32278;51.810;4.712;2023-06-22T08:57:39;22.02;;;13.02;;
46551;SDS011;32278;51.810;4.712;2023-06-22T09:00:06;19.05;;;12.80;;
46551;SDS011;32278;51.810;4.712;2023-06-22T09:02:40;18.38;;;12.23;;
46551;SDS011;32278;51.810;4.712;2023-06-22T09:05:06;17.73;;;12.52;;
46551;SDS011;32278;51.810;4.712;2023-06-22T09:07:32;17.10;;;12.40;;
46551;SDS011;32278;51.810;4.712;2023-06-22T09:09:59;21.17;;;13.50;;
46551;SDS011;32278;51.810;4.712;2023-06-22T09:12:25;23.88;;;12.05;;
46551;SDS011;32278;51.810;4.712;2023-06-22T09:14:52;19.42;;;12.70;;
46551;SDS011;32278;51.810;4.712;2023-06-22T09:17:18;18.85;;;12.93;;
46551;SDS011;32278;51.810;4.712;2023-06-22T09:19:44;19.88;;;13.20;;
46551;SDS011;32278;51.810;4.712;2023-06-22T09:22:10;15.40;;;10.18;;
46551;SDS011;32278;51.810;4.712;2023-06-22T09:24:36;16.05;;;11.73;;
46551;SDS011;32278;51.810;4.712;2023-06-22T09:27:02;15.07;;;11.48;;
46551;SDS011;32278;51.810;4.712;2023-06-22T09:29:28;16.00;;;12.25;;
46551;SDS011;32278;51.810;4.712;2023-06-22T09:31:54;20.15;;;11.65;;
46551;SDS011;32278;51.810;4.712;2023-06-22T09:34:20;17.63;;;12.52;;
46551;SDS011;32278;51.810;4.712;2023-06-22T09:36:46;17.35;;;11.57;;
46551;SDS011;32278;51.810;4.712;2023-06-22T09:39:12;16.55;;;11.73;;
46551;SDS011;32278;51.810;4.712;2023-06-22T09:41:38;15.65;;;9.93;;
46551;SDS011;32278;51.810;4.712;2023-06-22T09:44:04;20.40;;;11.57;;
46551;SDS011;32278;51.810;4.712;2023-06-22T09:46:30;17.52;;;12.85;;
46551;SDS011;32278;51.810;4.712;2023-06-22T09:48:56;18.52;;;11.38;;
46551;SDS011;32278;51.810;4.712;2023-06-22T09:51:23;18.02;;;10.98;;
46551;SDS011;32278;51.810;4.712;2023-06-22T09:53:49;17.65;;;11.05;;
46551;SDS011;32278;51.810;4.712;2023-06-22T09:56:15;17.83;;;12.80;;
46551;SDS011;32278;51.810;4.712;2023-06-22T09:58:44;15.40;;;10.20;;
46551;SDS011;32278;51.810;4.712;2023-06-22T10:01:11;17.27;;;11.32;;
46551;SDS011;32278;51.810;4.712;2023-06-22T10:03:39;14.77;;;10.88;;
46551;SDS011;32278;51.810;4.712;2023-06-22T10:06:06;16.25;;;11.60;;
46551;SDS011;32278;51.810;4.712;2023-06-22T10:08:32;16.42;;;11.85;;
46551;SDS011;32278;51.810;4.712;2023-06-22T10:10:58;18.05;;;11.10;;
46551;SDS011;32278;51.810;4.712;2023-06-22T10:13:24;17.67;;;11.52;;
46551;SDS011;32278;51.810;4.712;2023-06-22T10:15:50;16.27;;;10.98;;
46551;SDS011;32278;51.810;4.712;2023-06-22T10:18:20;16.58;;;11.57;;
46551;SDS011;32278;51.810;4.712;2023-06-22T10:20:49;16.83;;;11.10;;
46551;SDS011;32278;51.810;4.712;2023-06-22T10:23:16;16.80;;;11.45;;
46551;SDS011;32278;51.810;4.712;2023-06-22T10:25:42;17.05;;;11.52;;
46551;SDS011;32278;51.810;4.712;2023-06-22T10:28:08;18.02;;;11.98;;
46551;SDS011;32278;51.810;4.712;2023-06-22T10:30:34;20.33;;;11.75;;
46551;SDS011;32278;51.810;4.712;2023-06-22T10:33:00;16.85;;;10.68;;
46551;SDS011;32278;51.810;4.712;2023-06-22T10:35:26;17.00;;;11.30;;
46551;SDS011;32278;51.810;4.712;2023-06-22T10:37:52;17.63;;;11.98;;
46551;SDS011;32278;51.810;4.712;2023-06-22T10:40:19;14.40;;;10.60;;
46551;SDS011;32278;51.810;4.712;2023-06-22T10:42:45;16.23;;;10.75;;
46551;SDS011;32278;51.810;4.712;2023-06-22T10:45:11;19.30;;;12.32;;
46551;SDS011;32278;51.810;4.712;2023-06-22T10:47:37;14.27;;;10.18;;
46551;SDS011;32278;51.810;4.712;2023-06-22T10:50:03;17.30;;;9.77;;
46551;SDS011;32278;51.810;4.712;2023-06-22T10:52:29;15.93;;;10.57;;
46551;SDS011;32278;51.810;4.712;2023-06-22T10:54:55;22.50;;;9.90;;
46551;SDS011;32278;51.810;4.712;2023-06-22T10:57:22;15.40;;;10.30;;
46551;SDS011;32278;51.810;4.712;2023-06-22T10:59:48;15.27;;;10.25;;
46551;SDS011;32278;51.810;4.712;2023-06-22T11:02:14;16.20;;;10.43;;
46551;SDS011;32278;51.810;4.712;2023-06-22T11:04:40;17.00;;;10.15;;
46551;SDS011;32278;51.810;4.712;2023-06-22T11:07:06;15.45;;;11.38;;
46551;SDS011;32278;51.810;4.712;2023-06-22T11:09:32;16.65;;;11.98;;
46551;SDS011;32278;51.810;4.712;2023-06-22T11:11:58;15.68;;;10.90;;
46551;SDS011;32278;51.810;4.712;2023-06-22T11:14:24;14.93;;;11.27;;
46551;SDS011;32278;51.810;4.712;2023-06-22T11:16:50;15.13;;;10.18;;
46551;SDS011;32278;51.810;4.712;2023-06-22T11:19:17;19.10;;;10.38;;
46551;SDS011;32278;51.810;4.712;2023-06-22T11:21:43;18.95;;;11.00;;
46551;SDS011;32278;51.810;4.712;2023-06-22T11:24:09;18.38;;;11.27;;
46551;SDS011;32278;51.810;4.712;2023-06-22T11:26:35;14.95;;;11.85;;
46551;SDS011;32278;51.810;4.712;2023-06-22T11:29:01;17.98;;;11.52;;
46551;SDS011;32278;51.810;4.712;2023-06-22T11:31:30;22.08;;;12.93;;
46551;SDS011;32278;51.810;4.712;2023-06-22T11:33:56;17.80;;;12.23;;
46551;SDS011;32278;51.810;4.712;2023-06-22T11:36:22;19.17;;;13.18;;
46551;SDS011;32278;51.810;4.712;2023-06-22T11:38:49;20.60;;;13.18;;
46551;SDS011;32278;51.810;4.712;2023-06-22T11:41:15;17.45;;;12.90;;
46551;SDS011;32278;51.810;4.712;2023-06-22T11:43:41;20.48;;;14.48;;
46551;SDS011;32278;51.810;4.712;2023-06-22T11:46:07;17.85;;;13.57;;
46551;SDS011;32278;51.810;4.712;2023-06-22T11:48:33;21.05;;;15.52;;
46551;SDS011;32278;51.810;4.712;2023-06-22T11:50:59;21.65;;;16.27;;
46551;SDS011;32278;51.810;4.712;2023-06-22T11:53:26;22.95;;;16.63;;
46551;SDS011;32278;51.810;4.712;2023-06-22T11:55:52;22.83;;;17.27;;
46551;SDS011;32278;51.810;4.712;2023-06-22T11:58:19;21.70;;;16.38;;
46551;SDS011;32278;51.810;4.712;2023-06-22T12:00:45;22.90;;;15.77;;
46551;SDS011;32278;51.810;4.712;2023-06-22T12:03:11;21.90;;;16.83;;
46551;SDS011;32278;51.810;4.712;2023-06-22T12:05:37;23.98;;;16.80;;
46551;SDS011;32278;51.810;4.712;2023-06-22T12:08:03;20.80;;;15.73;;
46551;SDS011;32278;51.810;4.712;2023-06-22T12:10:30;21.20;;;16.17;;
46551;SDS011;32278;51.810;4.712;2023-06-22T12:12:56;21.45;;;15.65;;
46551;SDS011;32278;51.810;4.712;2023-06-22T12:15:23;24.90;;;16.65;;
46551;SDS011;32278;51.810;4.712;2023-06-22T12:17:49;21.15;;;13.48;;
46551;SDS011;32278;51.810;4.712;2023-06-22T12:20:16;18.75;;;13.45;;
46551;SDS011;32278;51.810;4.712;2023-06-22T12:22:43;18.58;;;13.45;;
46551;SDS011;32278;51.810;4.712;2023-06-22T12:25:09;13.63;;;10.52;;
46551;SDS011;32278;51.810;4.712;2023-06-22T12:27:35;13.93;;;10.68;;
46551;SDS011;32278;51.810;4.712;2023-06-22T12:30:02;12.77;;;9.60;;
46551;SDS011;32278;51.810;4.712;2023-06-22T12:32:28;14.77;;;10.73;;
46551;SDS011;32278;51.810;4.712;2023-06-22T12:34:54;19.35;;;10.88;;
46551;SDS011;32278;51.810;4.712;2023-06-22T12:37:20;16.63;;;10.13;;
46551;SDS011;32278;51.810;4.712;2023-06-22T12:39:46;13.73;;;9.38;;
46551;SDS011;32278;51.810;4.712;2023-06-22T12:42:12;12.82;;;9.43;;
46551;SDS011;32278;51.810;4.712;2023-06-22T12:44:38;13.38;;;9.80;;
46551;SDS011;32278;51.810;4.712;2023-06-22T12:47:05;14.35;;;9.98;;
46551;SDS011;32278;51.810;4.712;2023-06-22T12:49:31;15.15;;;10.25;;
46551;SDS011;32278;51.810;4.712;2023-06-22T12:51:57;16.55;;;10.25;;
46551;SDS011;32278;51.810;4.712;2023-06-22T12:54:23;15.60;;;10.85;;
46551;SDS011;32278;51.810;4.712;2023-06-22T12:56:52;17.33;;;11.52;;
46551;SDS011;32278;51.810;4.712;2023-06-22T12:59:18;16.98;;;11.23;;
46551;SDS011;32278;51.810;4.712;2023-06-22T13:01:44;17.08;;;11.85;;
46551;SDS011;32278;51.810;4.712;2023-06-22T13:04:11;15.65;;;12.20;;
46551;SDS011;32278;51.810;4.712;2023-06-22T13:06:39;21.75;;;11.63;;
46551;SDS011;32278;51.810;4.712;2023-06-22T13:09:05;21.23;;;12.57;;
46551;SDS011;32278;51.810;4.712;2023-06-22T13:11:31;20.13;;;11.32;;
46551;SDS011;32278;51.810;4.712;2023-06-22T13:13:57;18.67;;;12.55;;
46551;SDS011;32278;51.810;4.712;2023-06-22T13:16:25;16.77;;;11.68;;
46551;SDS011;32278;51.810;4.712;2023-06-22T13:18:51;16.98;;;12.20;;
46551;SDS011;32278;51.810;4.712;2023-06-22T13:21:17;15.73;;;11.55;;
46551;SDS011;32278;51.810;4.712;2023-06-22T13:23:43;25.92;;;13.85;;
46551;SDS011;32278;51.810;4.712;2023-06-22T13:26:09;23.17;;;14.13;;
46551;SDS011;32278;51.810;4.712;2023-06-22T13:28:35;26.23;;;15.45;;
46551;SDS011;32278;51.810;4.712;2023-06-22T13:31:01;22.15;;;15.65;;
46551;SDS011;32278;51.810;4.712;2023-06-22T13:33:27;21.40;;;16.17;;
46551;SDS011;32278;51.810;4.712;2023-06-22T13:35:53;26.65;;;16.45;;
46551;SDS011;32278;51.810;4.712;2023-06-22T13:38:19;22.13;;;16.27;;
46551;SDS011;32278;51.810;4.712;2023-06-22T13:40:45;27.38;;;16.67;;
46551;SDS011;32278;51.810;4.712;2023-06-22T13:43:12;24.88;;;15.50;;
46551;SDS011;32278;51.810;4.712;2023-06-22T13:45:38;21.70;;;16.50;;
46551;SDS011;32278;51.810;4.712;2023-06-22T13:48:04;21.35;;;16.33;;
46551;SDS011;32278;51.810;4.712;2023-06-22T13:50:30;20.92;;;16.10;;
46551;SDS011;32278;51.810;4.712;2023-06-22T13:52:56;22.00;;;15.13;;
46551;SDS011;32278;51.810;4.712;2023-06-22T13:55:22;25.27;;;17.42;;
46551;SDS011;32278;51.810;4.712;2023-06-22T13:57:48;30.00;;;17.83;;
46551;SDS011;32278;51.810;4.712;2023-06-22T14:00:16;23.05;;;18.15;;
46551;SDS011;32278;51.810;4.712;2023-06-22T14:02:42;26.85;;;17.65;;
46551;SDS011;32278;51.810;4.712;2023-06-22T14:05:08;29.90;;;18.65;;
46551;SDS011;32278;51.810;4.712;2023-06-22T14:07:35;23.13;;;16.73;;
46551;SDS011;32278;51.810;4.712;2023-06-22T14:10:02;34.65;;;17.77;;
46551;SDS011;32278;51.810;4.712;2023-06-22T14:12:28;25.08;;;19.70;;
46551;SDS011;32278;51.810;4.712;2023-06-22T14:14:54;26.35;;;19.98;;
46551;SDS011;32278;51.810;4.712;2023-06-22T14:17:20;29.20;;;17.90;;
46551;SDS011;32278;51.810;4.712;2023-06-22T14:19:50;29.13;;;18.80;;
46551;SDS011;32278;51.810;4.712;2023-06-22T14:22:20;28.27;;;18.60;;
46551;SDS011;32278;51.810;4.712;2023-06-22T14:24:46;30.40;;;17.88;;